TZR weather

Bolton Field
Columbus, Ohio, United States

Public forecast

Using degrees Fahrenheit for public forecast. Weather courtesy of forecast.io.

Current aviation weather report (METAR) for Bolton Field

Retrieved 2019/12/14 14:50 UTC (28 minutes ago):

KTZR 141450Z 31004KT 5SM -RA OVC005 02/02 A2962

Closest aviation forecast (TAF) to Bolton Field

Closest forecast is Rickenbacker International Airport, 11.0 nm (20.3 km) ESE. Retrieved 2019/12/14 12:42 UTC (3 hours ago):

TAF KLCK 141137Z 1412/1512 34010KT P6SM -RA BKN008 OVC025 FM141800 30010KT P6SM OVC012 FM142000 28011KT P6SM SCT020 BKN100 FM142200 27008KT P6SM BKN025 FM150300 26011KT P6SM OVC015